createdAt,value
2022-11-24T00:02:29.465Z,18.61
2022-11-24T00:05:31.696Z,18.62
2022-11-24T00:08:34.999Z,18.59
2022-11-24T00:11:37.506Z,18.59
2022-11-24T00:14:39.552Z,18.59
2022-11-24T00:17:41.686Z,18.57
2022-11-24T00:20:43.732Z,18.55
2022-11-24T00:23:46.677Z,18.55
2022-11-24T00:26:48.802Z,18.55
2022-11-24T00:29:50.847Z,18.57
2022-11-24T00:32:53.278Z,18.55
2022-11-24T00:35:57.314Z,18.53
2022-11-24T00:39:01.878Z,18.53
2022-11-24T00:42:03.999Z,18.52
2022-11-24T00:45:13.549Z,18.52
2022-11-24T00:48:16.458Z,18.51
2022-11-24T00:51:20.224Z,18.50
2022-11-24T00:54:22.488Z,18.49
2022-11-24T00:57:24.559Z,18.49
2022-11-24T01:00:26.684Z,18.48
2022-11-24T01:03:28.925Z,18.47
2022-11-24T01:06:32.635Z,18.47
2022-11-24T01:09:34.969Z,18.46
2022-11-24T01:12:37.091Z,18.47
2022-11-24T01:15:39.727Z,18.46
2022-11-24T01:18:41.941Z,18.44
2022-11-24T01:21:44.046Z,18.43
2022-11-24T01:24:46.210Z,18.42
2022-11-24T01:27:48.259Z,18.41
2022-11-24T01:31:00.664Z,18.42
2022-11-24T01:34:02.840Z,18.40
2022-11-24T01:37:04.905Z,18.41
2022-11-24T01:40:07.816Z,18.40
2022-11-24T01:43:18.350Z,18.39
2022-11-24T01:46:32.602Z,18.38
2022-11-24T01:49:43.776Z,18.38
2022-11-24T01:52:49.538Z,18.36
2022-11-24T01:55:53.293Z,18.35
2022-11-24T01:58:58.552Z,18.36
2022-11-24T02:02:00.672Z,18.35
2022-11-24T02:05:10.259Z,18.32
2022-11-24T02:08:28.844Z,18.34
2022-11-24T02:11:36.269Z,18.32
2022-11-24T02:14:40.809Z,18.30
2022-11-24T02:17:42.900Z,18.30
2022-11-24T02:20:45.051Z,18.30
2022-11-24T02:24:06.493Z,18.28
2022-11-24T02:27:10.572Z,18.28
2022-11-24T02:30:12.615Z,18.27
2022-11-24T02:33:15.154Z,18.26
2022-11-24T02:36:17.312Z,18.25
2022-11-24T02:39:19.602Z,18.24
2022-11-24T02:42:22.222Z,18.23
2022-11-24T02:45:25.834Z,18.23
2022-11-24T02:48:28.287Z,18.22
2022-11-24T02:51:30.350Z,18.22
2022-11-24T02:54:32.866Z,18.22
2022-11-24T02:57:35.128Z,18.20
2022-11-24T03:00:37.204Z,18.20
2022-11-24T03:03:39.445Z,18.19
2022-11-24T03:06:43.255Z,18.20
2022-11-24T03:09:45.645Z,18.19
2022-11-24T03:12:47.702Z,18.18
2022-11-24T03:15:49.913Z,18.17
2022-11-24T03:18:52.742Z,18.19
2022-11-24T03:21:54.798Z,18.15
2022-11-24T03:24:56.823Z,18.14
2022-11-24T03:27:58.972Z,18.14
2022-11-24T03:31:02.177Z,18.14
2022-11-24T03:34:04.289Z,18.12
2022-11-24T03:37:07.515Z,18.11
2022-11-24T03:40:10.106Z,18.11
2022-11-24T03:43:12.199Z,18.09
2022-11-24T03:46:14.328Z,18.11
2022-11-24T03:49:16.393Z,18.10
2022-11-24T03:52:18.453Z,18.09
2022-11-24T03:55:20.544Z,18.08
2022-11-24T03:58:22.971Z,18.06
2022-11-24T04:01:25.221Z,18.06
2022-11-24T04:04:27.334Z,18.08
2022-11-24T04:07:29.430Z,18.07
2022-11-24T04:10:33.722Z,18.14
2022-11-24T04:13:35.905Z,18.15
2022-11-24T04:16:38.042Z,18.19
2022-11-24T04:19:40.145Z,18.22
2022-11-24T04:22:42.823Z,18.23
2022-11-24T04:25:44.910Z,18.24
2022-11-24T04:28:47.959Z,18.26
2022-11-24T04:31:50.067Z,18.25
2022-11-24T04:34:52.179Z,18.25
2022-11-24T04:37:54.270Z,18.24
2022-11-24T04:41:00.492Z,18.29
2022-11-24T04:44:02.570Z,18.34
2022-11-24T04:47:05.214Z,18.34
2022-11-24T04:50:08.951Z,18.37
2022-11-24T04:53:11.791Z,18.40
2022-11-24T04:56:14.656Z,18.41
2022-11-24T04:59:17.106Z,18.46
2022-11-24T05:02:19.984Z,18.47
2022-11-24T05:05:22.052Z,18.47
2022-11-24T05:08:24.155Z,18.49
2022-11-24T05:11:26.192Z,18.48
2022-11-24T05:14:28.729Z,18.47
2022-11-24T05:17:32.198Z,18.44
2022-11-24T05:20:34.731Z,18.44
2022-11-24T05:23:36.909Z,18.44
2022-11-24T05:26:38.986Z,18.46
2022-11-24T05:29:41.099Z,18.59
2022-11-24T05:32:43.597Z,18.77
2022-11-24T05:35:46.470Z,18.91
2022-11-24T05:38:48.557Z,19.02
2022-11-24T05:41:50.678Z,19.16
2022-11-24T05:44:53.543Z,19.17
2022-11-24T05:47:55.676Z,19.18
2022-11-24T05:50:58.635Z,19.18
2022-11-24T05:54:00.669Z,19.22
2022-11-24T05:57:02.755Z,19.23
2022-11-24T06:00:07.172Z,19.22
2022-11-24T06:03:10.700Z,19.21
2022-11-24T06:06:13.124Z,19.18
2022-11-24T06:09:15.152Z,19.14
2022-11-24T06:12:17.180Z,19.13
2022-11-24T06:15:19.508Z,19.13
2022-11-24T06:18:21.537Z,19.11
2022-11-24T06:21:23.601Z,19.09
2022-11-24T06:24:25.668Z,19.06
2022-11-24T06:27:27.960Z,19.07
2022-11-24T06:30:30.219Z,19.08
2022-11-24T06:33:34.289Z,19.15
2022-11-24T06:36:36.389Z,19.17
2022-11-24T06:39:38.454Z,19.20
2022-11-24T06:42:40.547Z,19.20
2022-11-24T06:45:42.678Z,19.20
2022-11-24T06:48:44.846Z,19.17
2022-11-24T06:51:46.952Z,19.20
2022-11-24T06:54:48.986Z,19.24
2022-11-24T07:00:54.627Z,19.29
2022-11-24T07:03:57.687Z,19.32
2022-11-24T07:06:59.937Z,19.31
2022-11-24T07:10:02.144Z,19.29
2022-11-24T07:13:07.031Z,19.27
2022-11-24T07:16:23.753Z,19.26
2022-11-24T07:19:26.029Z,19.27
2022-11-24T07:22:28.187Z,19.30
2022-11-24T07:25:30.355Z,19.29
2022-11-24T07:28:33.092Z,19.27
2022-11-24T07:31:38.058Z,19.32
2022-11-24T07:34:40.157Z,19.37
2022-11-24T07:37:42.200Z,19.38
2022-11-24T07:40:44.274Z,19.40
2022-11-24T07:43:47.651Z,19.39
2022-11-24T07:46:51.188Z,19.39
2022-11-24T07:49:53.231Z,19.42
2022-11-24T07:52:55.298Z,19.42
2022-11-24T07:56:02.181Z,19.41
2022-11-24T07:59:05.061Z,19.42
2022-11-24T08:02:07.475Z,19.44
2022-11-24T08:05:09.677Z,19.44
2022-11-24T08:08:11.705Z,19.45
2022-11-24T08:11:17.057Z,19.52
2022-11-24T08:14:19.274Z,19.52
2022-11-24T08:17:21.323Z,19.53
2022-11-24T08:20:23.370Z,19.53
2022-11-24T08:23:25.930Z,19.57
2022-11-24T08:26:27.961Z,19.62
2022-11-24T08:29:30.868Z,19.65
2022-11-24T08:32:33.006Z,19.65
2022-11-24T08:35:38.607Z,19.67
2022-11-24T08:38:41.016Z,19.71
2022-11-24T08:41:43.277Z,19.71
2022-11-24T08:44:45.333Z,19.71
2022-11-24T08:47:55.105Z,19.72
2022-11-24T08:50:58.294Z,19.67
2022-11-24T08:54:01.524Z,19.70
2022-11-24T08:57:03.762Z,19.71
2022-11-24T09:00:07.376Z,19.68
2022-11-24T09:03:12.647Z,19.69
2022-11-24T09:06:15.415Z,19.67
2022-11-24T09:09:17.870Z,19.67
2022-11-24T09:12:19.972Z,19.71
2022-11-24T09:15:22.861Z,19.72
2022-11-24T09:18:29.976Z,19.72
2022-11-24T09:21:34.300Z,19.73
2022-11-24T09:24:36.464Z,19.73
2022-11-24T09:27:38.674Z,19.72
2022-11-24T09:30:40.862Z,19.72
2022-11-24T09:33:43.873Z,19.72
2022-11-24T09:36:46.149Z,19.72
2022-11-24T09:39:48.183Z,19.74
2022-11-24T09:43:19.411Z,19.72
2022-11-24T09:46:32.860Z,19.75
2022-11-24T09:49:47.316Z,19.77
2022-11-24T09:53:16.337Z,19.77
2022-11-24T09:56:30.795Z,19.77
2022-11-24T09:59:33.213Z,19.81
2022-11-24T10:02:35.398Z,19.77
2022-11-24T10:05:37.659Z,19.72
2022-11-24T10:08:49.566Z,19.71
2022-11-24T10:12:09.555Z,19.70
2022-11-24T10:15:19.015Z,19.68
2022-11-24T10:19:05.747Z,19.68
2022-11-24T10:22:44.119Z,19.68
2022-11-24T10:25:59.899Z,19.68
2022-11-24T10:29:13.802Z,19.68
2022-11-24T10:32:32.072Z,19.66
2022-11-24T10:35:48.174Z,19.67
2022-11-24T10:39:06.261Z,19.66
2022-11-24T10:42:17.647Z,19.65
2022-11-24T10:45:24.159Z,19.67
2022-11-24T10:48:29.898Z,19.71
2022-11-24T10:52:09.950Z,19.69
2022-11-24T10:55:12.051Z,19.67
2022-11-24T10:58:17.340Z,19.75
2022-11-24T11:01:26.396Z,19.71
2022-11-24T11:04:34.969Z,19.71
2022-11-24T11:07:37.091Z,19.72
2022-11-24T11:10:39.396Z,19.69
2022-11-24T11:13:55.798Z,19.68
2022-11-24T11:17:02.547Z,19.68
2022-11-24T11:20:16.940Z,19.68
2022-11-24T11:23:32.273Z,19.71
2022-11-24T11:26:37.669Z,19.74
2022-11-24T11:36:24.617Z,19.74
2022-11-24T11:39:37.108Z,19.77
2022-11-24T11:43:01.971Z,19.76
2022-11-24T11:46:17.859Z,19.74
2022-11-24T11:49:20.258Z,19.73
2022-11-24T11:52:32.753Z,19.75
2022-11-24T11:55:49.923Z,19.80
2022-11-24T11:59:26.017Z,19.81
2022-11-24T12:02:53.952Z,19.65
2022-11-24T12:06:46.935Z,18.94
2022-11-24T12:10:25.693Z,18.64
2022-11-24T12:13:56.484Z,18.65
2022-11-24T12:17:33.225Z,18.55
2022-11-24T12:20:40.798Z,18.65
2022-11-24T12:23:53.341Z,18.77
2022-11-24T12:27:05.718Z,18.66
2022-11-24T12:30:15.883Z,18.98
2022-11-24T12:33:27.826Z,19.36
2022-11-24T12:36:35.775Z,19.44
2022-11-24T12:40:13.323Z,19.43
2022-11-24T12:43:26.098Z,19.51
2022-11-24T12:46:49.603Z,19.53
2022-11-24T12:50:11.573Z,19.54
2022-11-24T12:53:24.637Z,19.54
2022-11-24T12:56:37.530Z,19.56
2022-11-24T12:59:46.760Z,19.60
2022-11-24T13:03:18.485Z,19.66
2022-11-24T13:06:36.166Z,19.85
2022-11-24T13:09:58.561Z,20.01
2022-11-24T13:13:14.452Z,20.11
2022-11-24T13:16:53.547Z,20.14
2022-11-24T13:19:46.838Z,20.15
2022-11-24T13:23:03.476Z,20.18
2022-11-24T13:26:27.373Z,20.21
2022-11-24T13:29:36.008Z,20.22
2022-11-24T13:32:38.160Z,20.27
2022-11-24T13:36:01.159Z,20.31
2022-11-24T13:39:17.159Z,20.34
2022-11-24T13:42:43.331Z,20.35
2022-11-24T13:45:45.269Z,20.35
2022-11-24T13:48:47.447Z,20.36
2022-11-24T13:51:53.247Z,20.34
2022-11-24T13:54:55.433Z,20.32
2022-11-24T13:57:59.314Z,20.30
2022-11-24T14:01:16.517Z,20.28
2022-11-24T14:04:43.144Z,20.26
2022-11-24T14:07:47.178Z,20.13
2022-11-24T14:10:49.599Z,20.09
2022-11-24T14:13:51.760Z,20.01
2022-11-24T14:17:06.887Z,19.99
2022-11-24T14:20:25.221Z,19.95
2022-11-24T14:23:27.657Z,19.97
2022-11-24T14:26:35.517Z,19.95
2022-11-24T14:29:37.669Z,19.94
2022-11-24T14:32:40.865Z,19.90
2022-11-24T14:35:49.275Z,19.91
2022-11-24T14:38:51.364Z,19.91
2022-11-24T14:42:09.897Z,19.89
2022-11-24T14:45:18.541Z,19.95
2022-11-24T14:48:28.294Z,19.91
2022-11-24T14:51:34.732Z,19.92
2022-11-24T14:54:54.162Z,19.91
2022-11-24T14:57:56.587Z,20.01
2022-11-24T15:01:29.632Z,20.01
2022-11-24T15:05:01.478Z,19.98
2022-11-24T15:08:04.098Z,19.96
2022-11-24T15:11:07.349Z,19.94
2022-11-24T15:14:31.932Z,19.87
2022-11-24T15:17:34.379Z,19.87
2022-11-24T15:20:46.276Z,19.87
2022-11-24T15:24:15.585Z,19.84
2022-11-24T15:27:17.608Z,19.80
2022-11-24T15:30:19.723Z,19.77
2022-11-24T15:33:23.165Z,19.79
2022-11-24T15:36:25.244Z,19.77
2022-11-24T15:39:27.372Z,19.80
2022-11-24T15:42:29.425Z,19.81
2022-11-24T15:45:33.819Z,19.83
2022-11-24T15:48:36.204Z,19.82
2022-11-24T15:51:42.474Z,19.84
2022-11-24T15:54:44.683Z,19.83
2022-11-24T15:57:47.238Z,19.84
2022-11-24T16:00:50.827Z,19.82
2022-11-24T16:03:53.019Z,19.72
2022-11-24T16:06:55.064Z,19.68
2022-11-24T16:09:57.134Z,19.65
2022-11-24T16:12:59.181Z,19.68
2022-11-24T16:16:01.491Z,19.71
2022-11-24T16:19:03.924Z,19.72
2022-11-24T16:22:06.677Z,19.70
2022-11-24T16:25:09.575Z,19.61
2022-11-24T16:28:11.861Z,19.58
2022-11-24T16:31:15.842Z,19.58
2022-11-24T16:34:18.472Z,19.59
2022-11-24T16:37:23.532Z,19.58
2022-11-24T16:40:25.705Z,19.57
2022-11-24T16:43:29.565Z,19.61
2022-11-24T16:46:31.698Z,19.62
2022-11-24T16:49:34.108Z,19.61
2022-11-24T16:52:36.569Z,19.53
2022-11-24T16:55:38.622Z,19.52
2022-11-24T16:58:41.796Z,19.56
2022-11-24T17:01:46.621Z,19.54
2022-11-24T17:04:52.177Z,19.51
2022-11-24T17:07:54.265Z,19.46
2022-11-24T17:10:56.441Z,19.46
2022-11-24T17:13:58.816Z,19.45
2022-11-24T17:17:00.898Z,19.44
2022-11-24T17:20:03.081Z,19.43
2022-11-24T17:23:05.223Z,19.51
2022-11-24T17:26:11.240Z,19.46
2022-11-24T17:29:13.552Z,19.44
2022-11-24T17:32:15.702Z,19.40
2022-11-24T17:35:17.790Z,19.39
2022-11-24T17:38:19.918Z,19.37
2022-11-24T17:41:25.024Z,19.37
2022-11-24T17:44:27.544Z,19.35
2022-11-24T17:47:30.154Z,19.36
2022-11-24T17:50:32.252Z,19.37
2022-11-24T17:53:36.825Z,19.33
2022-11-24T17:56:40.699Z,19.33
2022-11-24T17:59:42.822Z,19.32
2022-11-24T18:02:44.953Z,19.31
2022-11-24T18:05:47.172Z,19.30
2022-11-24T18:08:49.224Z,19.31
2022-11-24T18:11:52.136Z,19.28
2022-11-24T18:14:55.597Z,19.29
2022-11-24T18:17:57.670Z,19.29
2022-11-24T18:21:01.205Z,19.27
2022-11-24T18:24:03.349Z,19.27
2022-11-24T18:27:05.426Z,19.27
2022-11-24T18:30:08.045Z,19.25
2022-11-24T18:33:10.118Z,19.26
2022-11-24T18:36:22.642Z,19.25
2022-11-24T18:39:28.256Z,19.24
2022-11-24T18:42:30.374Z,19.24
2022-11-24T18:45:32.563Z,19.23
2022-11-24T18:48:35.425Z,19.22
2022-11-24T18:51:37.559Z,19.22
2022-11-24T18:54:39.664Z,19.21
2022-11-24T18:57:41.826Z,19.20
2022-11-24T19:00:43.951Z,19.20
2022-11-24T19:03:51.064Z,19.18
2022-11-24T19:06:53.143Z,19.18
2022-11-24T19:09:55.391Z,19.17
2022-11-24T19:12:57.484Z,19.16
2022-11-24T19:16:00.319Z,19.16
2022-11-24T19:19:02.941Z,19.15
2022-11-24T19:22:05.195Z,19.14
2022-11-24T19:25:10.396Z,19.15
2022-11-24T19:28:12.675Z,19.14
2022-11-24T19:31:16.568Z,19.14
2022-11-24T19:34:18.789Z,19.14
2022-11-24T19:37:21.635Z,19.13
2022-11-24T19:40:24.261Z,19.11
2022-11-24T19:43:26.747Z,19.11
2022-11-24T19:46:29.897Z,19.11
2022-11-24T19:49:32.447Z,19.13
2022-11-24T19:52:35.016Z,19.11
2022-11-24T19:55:37.944Z,19.13
2022-11-24T19:58:42.897Z,19.11
2022-11-24T20:01:45.806Z,19.10
2022-11-24T20:04:47.933Z,19.10
2022-11-24T20:07:50.035Z,19.09
2022-11-24T20:10:52.144Z,19.07
2022-11-24T20:13:54.523Z,19.08
2022-11-24T20:16:56.675Z,19.06
2022-11-24T20:19:58.954Z,19.06
2022-11-24T20:23:01.037Z,19.07
2022-11-24T20:26:07.946Z,19.07
2022-11-24T20:29:13.124Z,19.05
2022-11-24T20:32:19.419Z,19.06
2022-11-24T20:35:21.542Z,19.02
2022-11-24T20:38:23.636Z,19.03
2022-11-24T20:41:28.477Z,19.02
2022-11-24T20:44:30.595Z,19.03
2022-11-24T20:47:32.902Z,19.05
2022-11-24T20:50:38.005Z,19.01
2022-11-24T20:53:40.428Z,19.02
2022-11-24T20:56:44.371Z,19.01
2022-11-24T20:59:46.475Z,19.01
2022-11-24T21:02:48.811Z,18.99
2022-11-24T21:05:55.733Z,19.00
2022-11-24T21:09:03.517Z,19.00
2022-11-24T21:12:06.510Z,18.99
2022-11-24T21:15:09.123Z,18.98
2022-11-24T21:18:11.161Z,18.98
2022-11-24T21:21:14.046Z,18.99
2022-11-24T21:24:18.536Z,18.98
2022-11-24T21:27:20.609Z,18.97
2022-11-24T21:30:22.735Z,18.96
2022-11-24T21:33:24.958Z,18.96
2022-11-24T21:36:27.158Z,18.94
2022-11-24T21:39:29.250Z,18.92
2022-11-24T21:42:31.456Z,18.92
2022-11-24T21:45:34.759Z,18.94
2022-11-24T21:48:38.484Z,18.93
2022-11-24T21:51:40.576Z,18.91
2022-11-24T21:54:42.612Z,18.91
2022-11-24T21:57:44.765Z,18.89
2022-11-24T22:00:46.916Z,18.88
2022-11-24T22:03:49.354Z,18.88
2022-11-24T22:06:53.307Z,18.88
2022-11-24T22:09:55.361Z,18.86
2022-11-24T22:12:57.444Z,18.85
2022-11-24T22:16:05.157Z,18.84
2022-11-24T22:19:07.352Z,18.83
2022-11-24T22:22:09.398Z,18.84
2022-11-24T22:25:11.729Z,18.83
2022-11-24T22:28:13.850Z,18.82
2022-11-24T22:31:21.612Z,18.82
2022-11-24T22:34:23.761Z,18.81
2022-11-24T22:37:25.762Z,18.80
2022-11-24T22:40:27.978Z,18.84
2022-11-24T22:43:31.885Z,18.81
2022-11-24T22:46:34.290Z,18.80
2022-11-24T22:49:36.343Z,18.79
2022-11-24T22:52:40.359Z,18.77
2022-11-24T22:55:42.439Z,18.74
2022-11-24T22:58:44.663Z,18.74
2022-11-24T23:01:46.692Z,18.74
2022-11-24T23:04:48.833Z,18.77
2022-11-24T23:07:51.794Z,18.73
2022-11-24T23:11:00.632Z,18.72
2022-11-24T23:14:03.270Z,18.72
2022-11-24T23:17:05.338Z,18.70
2022-11-24T23:20:08.401Z,18.69
2022-11-24T23:23:10.491Z,18.68
2022-11-24T23:26:16.248Z,18.68
2022-11-24T23:29:18.337Z,18.65
2022-11-24T23:32:20.470Z,18.65
2022-11-24T23:35:23.641Z,18.65
2022-11-24T23:38:30.081Z,18.64
2022-11-24T23:41:32.420Z,18.62
2022-11-24T23:44:34.587Z,18.61
2022-11-24T23:47:36.795Z,18.59
2022-11-24T23:50:38.867Z,18.61
2022-11-24T23:53:41.533Z,18.59
2022-11-24T23:56:43.615Z,18.58
2022-11-24T23:59:45.669Z,18.57
